Time;durP1;ratioP1;P1;durP2;ratioP2;P2;SDS_P1;SDS_P2;PMS_P1;PMS_P2;Temp;Humidity;BMP_temperature;BMP_pressure;BME280_temperature;BME280_humidity;BME280_pressure;Samples;Min_cycle;Max_cycle;Signal;HPM_P1;HPM_P2
2022/01/22 00:01:33;;;;;;;5.90;4.30;;;3.00;99.90;;;4.01;100.00;-19863.25;5111500;28;20227;-68
2022/01/22 00:04:01;;;;;;;5.07;3.97;;;3.10;99.90;;;3.93;100.00;-19860.69;5111628;28;20835;-68
2022/01/22 00:06:29;;;;;;;4.83;4.10;;;3.10;99.90;;;3.94;100.00;-19860.84;5111708;28;20239;-69
2022/01/22 00:09:04;;;;;;;5.63;4.70;;;3.10;99.90;;;4.19;100.00;-19869.56;5112501;28;20226;-67
2022/01/22 00:11:38;;;;;;;4.10;3.70;;;3.20;99.90;;;4.18;100.00;-19869.22;5111488;28;20255;-68
2022/01/22 00:14:24;;;;;;;5.07;3.77;;;3.30;99.90;;;4.04;100.00;-19864.44;5111300;28;20237;-68
2022/01/22 00:16:56;;;;;;;5.00;4.10;;;3.20;99.90;;;4.17;100.00;-19868.88;5111205;27;20809;-68
2022/01/22 00:19:25;;;;;;;4.27;3.70;;;3.20;99.90;;;4.18;100.00;-19869.22;5111413;28;20223;-68
2022/01/22 00:21:54;;;;;;;4.80;4.10;;;3.30;99.90;;;4.12;100.00;-19867.19;5111542;28;20300;-67
2022/01/22 00:24:22;;;;;;;4.33;3.67;;;3.40;99.90;;;4.13;100.00;-19867.53;5112192;28;20204;-67
2022/01/22 00:26:52;;;;;;;3.80;3.40;;;3.40;99.90;;;4.26;100.00;-19871.97;5110917;28;20774;-67
2022/01/22 00:29:20;;;;;;;4.60;3.93;;;3.40;99.90;;;4.22;100.00;-19870.44;5111296;28;20219;-68
2022/01/22 00:31:48;;;;;;;4.47;3.57;;;3.40;99.90;;;4.35;100.00;-19874.88;5110914;28;20724;-67
2022/01/22 00:34:16;;;;;;;4.80;3.67;;;3.50;99.90;;;4.30;100.00;-19873.16;5111508;28;20308;-66
2022/01/22 00:36:44;;;;;;;4.90;3.60;;;3.50;99.90;;;4.36;100.00;-19875.22;5111156;28;20229;-68
2022/01/22 00:39:12;;;;;;;4.17;3.53;;;3.50;99.90;;;4.44;100.00;-19878.13;5111780;28;20202;-68
2022/01/22 00:41:40;;;;;;;4.40;3.50;;;3.50;99.90;;;4.46;100.00;-19878.81;5110551;28;20253;-67
2022/01/22 00:44:10;;;;;;;4.20;3.80;;;3.60;99.90;;;4.32;100.00;-19874.03;5111123;28;20340;-66
2022/01/22 00:46:38;;;;;;;4.03;3.60;;;3.50;99.90;;;4.39;100.00;-19876.25;5110753;28;20722;-67
2022/01/22 00:49:06;;;;;;;4.33;3.83;;;3.50;99.90;;;4.33;100.00;-19874.34;5111170;28;20647;-67
2022/01/22 00:51:34;;;;;;;4.20;3.80;;;3.50;99.90;;;4.46;100.00;-19878.81;5111116;28;20239;-68
2022/01/22 00:54:02;;;;;;;4.20;3.80;;;3.60;99.90;;;4.36;100.00;-19875.38;5111905;28;20304;-68
2022/01/22 00:56:30;;;;;;;4.97;3.83;;;3.60;99.90;;;4.40;100.00;-19876.56;5110545;28;20259;-67
2022/01/22 00:58:58;;;;;;;4.47;3.73;;;3.60;99.90;;;4.54;100.00;-19881.53;5110982;28;20280;-67
2022/01/22 01:01:28;;;;;;;4.47;3.87;;;3.60;99.90;;;4.51;100.00;-19880.34;5110502;28;20742;-67
2022/01/22 01:04:00;;;;;;;4.17;3.77;;;3.60;99.90;;;4.56;100.00;-19882.06;5110665;28;20231;-67
2022/01/22 01:06:29;;;;;;;3.93;3.53;;;3.60;99.90;;;4.63;100.00;-19884.59;5111242;28;20185;-66
2022/01/22 01:08:59;;;;;;;5.50;3.67;;;3.60;99.90;;;4.62;100.00;-19884.09;5110997;28;20243;-67
2022/01/22 01:11:30;;;;;;;4.07;3.60;;;3.60;99.90;;;4.51;100.00;-19880.50;5110303;28;20857;-66
2022/01/22 01:14:01;;;;;;;4.33;3.80;;;3.60;99.90;;;4.48;100.00;-19879.47;5110711;28;20248;-66
2022/01/22 01:16:56;;;;;;;4.80;3.97;;;3.70;99.90;;;4.62;100.00;-19884.28;5110612;28;20596;-66
2022/01/22 01:33:18;;;;;;;3.73;3.30;;;3.70;99.90;;;4.52;100.00;-19880.69;5110382;28;20319;-65
2022/01/22 01:35:46;;;;;;;4.17;3.60;;;3.70;99.90;;;4.54;100.00;-19881.53;5110484;28;20803;-65
2022/01/22 01:38:18;;;;;;;4.00;3.43;;;3.70;99.90;;;4.45;100.00;-19878.28;5110297;28;20257;-65
2022/01/22 01:40:54;;;;;;;3.80;3.40;;;3.70;99.90;;;4.57;100.00;-19882.56;5110116;28;20232;-66
2022/01/22 01:43:27;;;;;;;4.50;3.83;;;3.70;99.90;;;4.42;100.00;-19877.44;5110335;28;20368;-66
2022/01/22 01:45:55;;;;;;;4.40;3.90;;;3.70;99.90;;;4.48;100.00;-19879.47;5110181;28;20664;-66
2022/01/22 01:48:29;;;;;;;4.57;3.90;;;3.70;99.90;;;4.46;100.00;-19878.63;5110541;28;20207;-66
2022/01/22 01:50:58;;;;;;;4.27;3.80;;;3.70;99.90;;;4.55;100.00;-19881.88;5110177;28;20669;-65
2022/01/22 01:53:44;;;;;;;5.27;4.27;;;3.70;99.90;;;4.56;100.00;-19882.06;5110228;28;20226;-65
2022/01/22 01:58:55;;;;;;;5.80;4.77;;;3.80;99.90;;;4.55;100.00;-19881.72;5112402;28;20230;-66
2022/01/22 02:01:23;;;;;;;6.40;4.97;;;3.80;99.90;;;4.58;100.00;-19882.91;5110192;28;20317;-65
2022/01/22 02:03:53;;;;;;;6.50;5.30;;;3.80;99.90;;;4.55;100.00;-19881.88;5109839;28;20201;-65
2022/01/22 02:06:21;;;;;;;6.80;5.17;;;3.80;99.90;;;4.60;100.00;-19883.59;5110098;28;20298;-66
2022/01/22 02:08:49;;;;;;;7.50;5.17;;;3.80;99.90;;;4.73;100.00;-19888.03;5109904;28;20232;-66
2022/01/22 02:11:19;;;;;;;6.80;5.33;;;3.90;99.90;;;4.69;100.00;-19886.50;5110073;28;20218;-66
2022/01/22 02:14:01;;;;;;;6.53;5.57;;;3.90;99.90;;;4.81;100.00;-19890.78;5110320;28;20261;-66
2022/01/22 02:25:07;;;;;;;12.17;8.20;;;4.20;99.90;;;5.32;100.00;-19907.84;5114000;28;20268;-66
2022/01/22 02:27:35;;;;;;;10.87;7.50;;;4.40;99.90;;;5.45;100.00;-19912.31;5113744;28;20256;-67
2022/01/22 02:30:05;;;;;;;12.17;7.97;;;4.50;99.90;;;5.41;100.00;-19911.09;5114192;28;20603;-66
2022/01/22 02:32:58;;;;;;;12.50;8.40;;;4.60;99.90;;;5.54;100.00;-19915.56;5113702;27;20316;-66
2022/01/22 02:35:30;;;;;;;12.10;7.77;;;4.70;99.90;;;5.53;100.00;-19915.22;5113659;28;20729;-67
2022/01/22 02:38:04;;;;;;;12.60;7.47;;;4.70;99.90;;;5.67;100.00;-19919.81;5113651;27;20256;-66
2022/01/22 02:40:40;;;;;;;10.30;7.60;;;4.70;99.90;;;5.62;100.00;-19918.13;5113360;28;20720;-65
2022/01/22 02:43:09;;;;;;;9.87;7.03;;;4.80;99.90;;;5.68;100.00;-19920.34;5113608;28;20256;-65
2022/01/22 02:45:39;;;;;;;9.17;6.70;;;4.80;99.90;;;5.58;100.00;-19916.91;5113421;28;20273;-66
2022/01/22 02:48:07;;;;;;;9.77;6.23;;;4.80;99.90;;;5.67;100.00;-19919.81;5113852;28;20202;-66
2022/01/22 02:50:35;;;;;;;10.57;7.33;;;4.80;99.90;;;5.80;100.00;-19924.44;5113332;28;20313;-66
2022/01/22 02:53:08;;;;;;;10.67;6.50;;;4.90;99.90;;;5.67;100.00;-19919.81;5113094;28;20291;-66
2022/01/22 02:55:36;;;;;;;9.70;6.17;;;4.90;99.90;;;5.74;100.00;-19922.38;5113131;28;20620;-66
2022/01/22 02:58:05;;;;;;;8.13;6.20;;;4.90;99.90;;;5.72;100.00;-19921.69;5113150;28;20249;-65
2022/01/22 03:00:34;;;;;;;9.33;6.53;;;4.90;99.90;;;5.70;100.00;-19920.84;5112813;28;20223;-66
2022/01/22 03:03:03;;;;;;;10.40;5.83;;;4.90;99.90;;;5.75;100.00;-19922.56;5113345;28;20207;-64
2022/01/22 03:05:31;;;;;;;10.47;5.80;;;4.90;99.90;;;5.68;100.00;-19920.34;5112414;28;20233;-65
2022/01/22 03:08:06;;;;;;;7.03;4.73;;;4.80;99.90;;;5.73;100.00;-19922.03;5093736;28;20318;-66
2022/01/22 03:10:38;;;;;;;6.27;4.90;;;4.90;99.90;;;5.78;100.00;-19923.59;5092630;28;20223;-66
2022/01/22 03:16:30;;;;;;;7.20;4.80;;;4.90;99.90;;;5.75;100.00;-19922.56;5075590;27;20626;-66
2022/01/22 03:19:04;;;;;;;6.23;4.57;;;5.00;99.90;;;5.79;100.00;-19924.09;5028111;28;20232;-65
2022/01/22 03:21:42;;;;;;;7.03;4.33;;;5.00;99.90;;;5.92;100.00;-19928.38;5028657;28;20243;-66
2022/01/22 03:27:21;;;;;;;5.47;4.13;;;5.00;99.90;;;5.75;100.00;-19922.56;5028042;28;20336;-65
2022/01/22 03:29:50;;;;;;;4.60;3.77;;;4.90;99.90;;;5.84;100.00;-19925.63;5027618;28;20677;-65
2022/01/22 03:32:21;;;;;;;5.43;3.87;;;5.00;99.90;;;5.95;100.00;-19929.41;5028157;28;20233;-66
2022/01/22 03:34:57;;;;;;;5.27;3.20;;;5.00;99.90;;;5.94;100.00;-19929.06;5027750;28;20237;-66
2022/01/22 03:37:27;;;;;;;3.50;2.63;;;5.00;99.90;;;5.93;100.00;-19928.88;5027581;28;20775;-66
2022/01/22 03:39:56;;;;;;;3.57;2.57;;;5.00;99.90;;;5.88;100.00;-19927.00;5027704;28;20263;-66
2022/01/22 03:42:24;;;;;;;2.00;1.80;;;5.00;99.90;;;5.87;100.00;-19926.66;5028249;28;20285;-65
2022/01/22 03:44:52;;;;;;;2.43;1.80;;;5.00;99.90;;;5.80;100.00;-19924.44;5027257;28;20310;-66
2022/01/22 03:47:22;;;;;;;2.70;1.93;;;4.90;99.90;;;5.84;100.00;-19925.81;5027769;28;20253;-66
2022/01/22 03:49:50;;;;;;;2.37;1.80;;;4.90;99.90;;;5.82;100.00;-19925.13;5027647;28;20229;-66
2022/01/22 03:52:18;;;;;;;3.53;1.80;;;4.90;99.90;;;5.73;100.00;-19922.03;5027737;28;20312;-65
2022/01/22 03:54:46;;;;;;;2.53;1.70;;;4.90;99.90;;;5.76;100.00;-19922.91;5027351;28;20319;-67
2022/01/22 03:57:14;;;;;;;2.30;1.60;;;4.90;99.90;;;5.69;100.00;-19920.50;5027932;28;20237;-67
2022/01/22 03:59:43;;;;;;;1.77;1.57;;;4.90;99.90;;;5.75;100.00;-19922.56;5026569;28;20229;-67
2022/01/22 04:05:02;;;;;;;2.20;1.37;;;4.90;99.90;;;5.75;100.00;-19922.72;5041891;28;20231;-66
2022/01/22 04:10:20;;;;;;;1.47;1.37;;;4.80;99.90;;;5.57;100.00;-19916.41;5046951;28;20224;-65
2022/01/22 04:12:54;;;;;;;1.93;1.30;;;4.80;99.90;;;5.56;100.00;-19916.06;5046933;28;20241;-66
2022/01/22 04:15:26;;;;;;;1.93;1.40;;;4.80;99.90;;;5.52;100.00;-19914.88;5047054;28;20316;-66
2022/01/22 04:26:22;;;;;;;2.00;1.70;;;4.70;99.90;;;5.43;100.00;-19911.63;5041510;28;20258;-65
2022/01/22 04:28:51;;;;;;;2.20;1.70;;;4.70;99.90;;;5.51;100.00;-19914.34;5033546;28;20752;-64
2022/01/22 04:31:19;;;;;;;3.67;1.83;;;4.60;99.90;;;5.47;100.00;-19912.97;5033730;28;20261;-65
2022/01/22 04:33:48;;;;;;;2.27;1.80;;;4.60;99.90;;;5.41;100.00;-19911.09;5033541;28;20538;-65
2022/01/22 04:36:17;;;;;;;2.30;2.00;;;4.70;99.90;;;5.48;100.00;-19913.50;5034019;28;20308;-65
2022/01/22 04:38:45;;;;;;;2.23;1.90;;;4.60;99.90;;;5.47;100.00;-19913.16;5035826;28;20284;-64
2022/01/22 04:41:14;;;;;;;4.13;2.20;;;4.70;99.90;;;5.52;100.00;-19914.69;5033549;28;20375;-64
2022/01/22 04:43:43;;;;;;;2.47;2.00;;;4.60;99.90;;;5.41;100.00;-19911.09;5033537;28;20311;-63
2022/01/22 04:46:19;;;;;;;2.10;1.90;;;4.60;99.90;;;5.24;100.00;-19905.13;5033343;28;20452;-63
2022/01/22 04:49:04;;;;;;;2.27;1.80;;;4.60;99.90;;;5.11;100.00;-19900.84;5033383;28;20189;-64
2022/01/22 04:57:05;;;;;;;2.60;1.67;;;4.40;99.90;;;5.01;100.00;-19897.25;4993546;28;20226;-65
2022/01/22 04:59:34;;;;;;;1.60;1.50;;;4.30;99.90;;;4.95;100.00;-19895.38;5009827;28;20249;-65
2022/01/22 05:02:02;;;;;;;1.77;1.60;;;4.20;99.90;;;5.06;100.00;-19898.97;5013044;28;20225;-65
2022/01/22 05:04:30;;;;;;;2.47;1.70;;;4.30;99.90;;;5.00;100.00;-19897.09;5013308;28;20239;-65
2022/01/22 05:07:00;;;;;;;2.10;1.80;;;4.30;99.90;;;5.07;100.00;-19899.50;5019503;28;20335;-65
2022/01/22 05:09:28;;;;;;;3.43;1.70;;;4.30;99.90;;;5.15;100.00;-19902.22;5013587;28;20205;-65
2022/01/22 05:11:56;;;;;;;3.77;1.70;;;4.30;99.90;;;5.10;100.00;-19900.50;5012759;28;20280;-65
2022/01/22 05:14:25;;;;;;;2.20;1.80;;;4.40;99.90;;;5.10;100.00;-19900.50;5012795;28;20261;-65
2022/01/22 05:16:55;;;;;;;2.63;1.40;;;4.30;99.90;;;5.07;100.00;-19899.50;5012491;28;20280;-64
2022/01/22 05:19:30;;;;;;;2.17;1.53;;;4.30;99.90;;;5.15;100.00;-19902.22;5011220;28;20323;-64
2022/01/22 05:22:08;;;;;;;3.47;1.60;;;4.30;99.90;;;5.22;100.00;-19904.44;4993451;28;20225;-64
2022/01/22 05:24:41;;;;;;;3.97;2.07;;;4.40;99.90;;;5.14;100.00;-19901.88;4992927;28;20673;-64
2022/01/22 05:27:27;;;;;;;3.30;1.80;;;4.40;99.90;;;5.13;100.00;-19901.53;4993783;28;20288;-65
2022/01/22 05:30:12;;;;;;;3.00;2.03;;;4.40;99.90;;;5.12;100.00;-19901.03;4993073;28;20306;-65
2022/01/22 05:32:57;;;;;;;2.27;1.67;;;4.40;99.90;;;5.21;100.00;-19904.09;4992891;28;20269;-65
2022/01/22 05:38:13;;;;;;;3.13;2.00;;;4.30;99.90;;;4.92;100.00;-19894.53;4992092;28;20242;-64
2022/01/22 05:40:41;;;;;;;3.07;1.80;;;4.20;99.90;;;4.91;100.00;-19894.00;4993054;28;20233;-64
2022/01/22 05:43:09;;;;;;;2.93;1.90;;;4.20;99.90;;;4.94;100.00;-19895.22;4993058;28;20756;-65
2022/01/22 05:45:37;;;;;;;3.20;2.03;;;4.20;99.90;;;4.89;100.00;-19893.31;4992699;28;20221;-64
2022/01/22 05:48:06;;;;;;;2.80;2.00;;;4.20;99.90;;;4.61;100.00;-19883.75;4993186;28;20670;-65
2022/01/22 05:50:44;;;;;;;3.97;2.00;;;4.10;99.90;;;4.78;100.00;-19889.75;4993132;28;20373;-65
2022/01/22 05:53:26;;;;;;;2.33;1.70;;;4.00;99.90;;;4.51;100.00;-19880.50;5025871;28;20299;-64
2022/01/22 06:01:29;;;;;;;2.17;1.70;;;3.90;99.90;;;4.67;100.00;-19885.81;5031877;28;20233;-63
2022/01/22 06:03:57;;;;;;;4.17;1.70;;;3.90;99.90;;;4.61;100.00;-19883.75;5031732;28;20242;-64
2022/01/22 06:06:25;;;;;;;2.37;1.50;;;3.90;99.90;;;4.52;100.00;-19880.69;5032199;28;20306;-64
2022/01/22 06:08:56;;;;;;;2.43;2.00;;;3.90;99.90;;;4.64;100.00;-19884.78;5031807;28;20235;-64
2022/01/22 06:11:25;;;;;;;2.13;1.50;;;3.90;99.90;;;4.56;100.00;-19882.06;5031421;28;20261;-63
2022/01/22 06:13:53;;;;;;;2.87;1.70;;;3.90;99.90;;;4.57;100.00;-19882.38;5031573;28;20256;-65
2022/01/22 06:16:24;;;;;;;2.57;2.00;;;3.90;99.90;;;4.51;100.00;-19880.50;5031581;28;20315;-63
2022/01/22 06:18:53;;;;;;;3.20;2.00;;;3.90;99.90;;;4.47;100.00;-19879.16;5031796;28;20252;-65
2022/01/22 06:21:21;;;;;;;2.97;2.03;;;3.80;99.90;;;4.55;100.00;-19881.88;5032040;28;20304;-64
2022/01/22 06:23:49;;;;;;;5.07;1.97;;;3.80;99.90;;;4.63;100.00;-19884.59;5012864;28;20253;-67
2022/01/22 06:26:19;;;;;;;3.57;1.80;;;3.90;99.90;;;4.63;100.00;-19884.59;5011867;28;20229;-68
2022/01/22 06:28:47;;;;;;;2.50;2.00;;;3.90;99.90;;;4.54;100.00;-19881.53;5011665;28;20232;-68
2022/01/22 06:31:16;;;;;;;3.77;1.80;;;3.90;99.90;;;4.62;100.00;-19884.28;5011751;28;20244;-68
2022/01/22 06:33:44;;;;;;;4.17;1.90;;;3.90;99.90;;;4.46;100.00;-19878.63;5011072;28;20203;-67
2022/01/22 06:36:12;;;;;;;3.73;2.40;;;3.80;99.90;;;4.50;100.00;-19880.16;5011688;28;20316;-67
2022/01/22 06:38:40;;;;;;;3.63;2.13;;;3.90;99.90;;;4.45;100.00;-19878.47;5011102;28;20317;-68
2022/01/22 06:43:55;;;;;;;4.47;2.20;;;3.80;99.90;;;4.51;100.00;-19880.50;5011480;28;20240;-67
2022/01/22 06:46:23;;;;;;;2.87;2.30;;;3.80;99.90;;;4.45;100.00;-19878.47;5011141;28;20233;-67
2022/01/22 06:48:51;;;;;;;3.10;2.27;;;3.80;99.90;;;4.54;100.00;-19881.38;5013335;28;20268;-68
2022/01/22 06:51:22;;;;;;;5.93;3.17;;;3.80;99.90;;;4.54;100.00;-19881.38;5031544;28;20733;-67
2022/01/22 06:53:52;;;;;;;4.10;3.20;;;3.80;99.90;;;4.48;100.00;-19879.31;5030959;28;20305;-67
2022/01/22 06:56:21;;;;;;;4.07;2.67;;;3.80;99.90;;;4.47;100.00;-19879.16;5031326;28;20639;-67
2022/01/22 06:58:50;;;;;;;4.70;2.70;;;3.80;99.90;;;4.51;100.00;-19880.34;5030904;28;20234;-67
2022/01/22 07:01:19;;;;;;;6.20;3.50;;;3.80;99.90;;;4.74;100.00;-19888.38;5031150;28;20312;-68
2022/01/22 07:03:48;;;;;;;7.87;3.40;;;3.90;99.90;;;4.69;100.00;-19886.50;5031033;28;20232;-67
2022/01/22 07:06:16;;;;;;;6.43;3.57;;;4.00;99.90;;;4.60;100.00;-19883.41;5031442;28;20201;-68
2022/01/22 07:08:44;;;;;;;6.90;3.60;;;3.90;99.90;;;4.82;100.00;-19891.09;5030789;28;20315;-67
2022/01/22 07:11:12;;;;;;;6.87;3.50;;;4.00;99.90;;;4.91;100.00;-19894.19;5030989;28;20224;-68
2022/01/22 07:13:41;;;;;;;6.63;3.70;;;4.10;99.90;;;4.87;100.00;-19892.66;5030902;28;20224;-68
2022/01/22 07:16:09;;;;;;;6.30;3.93;;;4.00;99.90;;;4.80;100.00;-19890.25;5031095;28;20307;-68
2022/01/22 07:18:39;;;;;;;5.50;3.67;;;4.00;99.90;;;4.92;100.00;-19894.53;5030702;28;20239;-69
2022/01/22 07:21:16;;;;;;;7.00;3.23;;;4.00;99.90;;;4.88;100.00;-19893.00;5031362;28;20236;-68
2022/01/22 07:24:22;;;;;;;4.43;3.30;;;4.10;99.90;;;5.08;100.00;-19899.66;5031132;28;20248;-68
2022/01/22 07:26:51;;;;;;;5.53;3.40;;;4.20;99.90;;;5.13;100.00;-19901.38;5031077;28;20236;-67
2022/01/22 07:29:19;;;;;;;6.10;3.17;;;4.20;99.90;;;5.06;100.00;-19898.97;5030398;28;20253;-68
2022/01/22 07:31:47;;;;;;;5.80;3.10;;;4.20;99.90;;;5.07;100.00;-19899.31;5030486;28;20264;-69
2022/01/22 07:34:17;;;;;;;5.03;3.40;;;4.30;99.90;;;5.10;100.00;-19900.34;5030535;28;20229;-64
2022/01/22 07:36:45;;;;;;;4.70;3.03;;;4.30;99.90;;;4.99;100.00;-19896.91;5030485;28;20261;-64
2022/01/22 07:39:14;;;;;;;7.73;3.77;;;4.30;99.90;;;5.14;100.00;-19901.72;5031031;28;20212;-64
2022/01/22 07:41:42;;;;;;;8.07;3.53;;;4.30;99.90;;;5.12;100.00;-19901.19;5030146;28;20311;-64
2022/01/22 07:44:10;;;;;;;5.77;3.73;;;4.30;99.90;;;5.04;100.00;-19898.28;5030051;28;20324;-64
2022/01/22 07:46:38;;;;;;;7.53;3.40;;;4.30;99.90;;;5.07;100.00;-19899.31;5030277;28;20221;-64
2022/01/22 07:49:06;;;;;;;4.60;3.30;;;4.30;99.90;;;5.06;100.00;-19898.97;5030484;28;20232;-64
2022/01/22 07:51:35;;;;;;;4.50;3.60;;;4.30;99.90;;;5.12;100.00;-19901.19;5030415;28;20770;-65
2022/01/22 07:54:04;;;;;;;4.47;2.97;;;4.40;99.90;;;5.13;100.00;-19901.53;5030723;28;20225;-64
2022/01/22 07:56:32;;;;;;;7.80;3.03;;;4.40;99.90;;;5.29;100.00;-19906.84;5030342;28;20312;-64
2022/01/22 07:59:00;;;;;;;5.03;2.87;;;4.40;99.90;;;5.28;100.00;-19906.50;5030155;28;20227;-66
2022/01/22 08:01:28;;;;;;;5.57;3.37;;;4.40;99.90;;;5.18;100.00;-19903.06;5031742;28;20345;-64
2022/01/22 08:03:57;;;;;;;5.43;3.63;;;4.40;99.90;;;5.24;100.00;-19905.13;5034257;28;20274;-64
2022/01/22 08:06:25;;;;;;;5.10;3.77;;;4.40;99.90;;;5.41;100.00;-19911.09;5034517;28;20379;-65
2022/01/22 08:08:54;;;;;;;5.23;3.80;;;4.50;99.90;;;5.47;100.00;-19912.97;5033725;28;20260;-65
2022/01/22 08:11:22;;;;;;;6.60;3.70;;;4.50;99.90;;;5.33;100.00;-19908.38;5033746;28;20282;-64
2022/01/22 08:13:51;;;;;;;5.77;3.63;;;4.50;99.90;;;5.56;100.00;-19916.06;5033531;28;20311;-65
2022/01/22 08:16:19;;;;;;;5.37;3.13;;;4.60;99.90;;;5.48;100.00;-19913.50;5033960;28;20397;-65
2022/01/22 08:18:47;;;;;;;6.47;3.20;;;4.60;99.90;;;5.38;100.00;-19909.91;5033539;28;20221;-65
2022/01/22 08:21:15;;;;;;;7.10;3.90;;;4.60;99.90;;;5.48;100.00;-19913.34;5034239;28;20236;-63
2022/01/22 08:23:43;;;;;;;5.47;3.73;;;4.60;99.90;;;5.58;100.00;-19916.91;5033698;28;20254;-64
2022/01/22 08:26:17;;;;;;;7.13;3.80;;;4.70;99.90;;;5.68;100.00;-19920.34;5033693;28;20229;-65
2022/01/22 08:28:55;;;;;;;5.60;4.20;;;4.70;99.90;;;5.65;100.00;-19919.16;5033713;28;20320;-64
2022/01/22 08:31:39;;;;;;;8.57;3.50;;;4.70;99.90;;;5.63;100.00;-19918.63;5033675;28;20236;-64
2022/01/22 08:36:54;;;;;;;5.33;3.63;;;4.80;99.90;;;5.90;100.00;-19927.69;5033433;28;20217;-64
2022/01/22 08:39:23;;;;;;;6.60;3.57;;;4.90;99.90;;;5.77;100.00;-19923.25;5034265;28;20202;-65
2022/01/22 08:41:56;;;;;;;4.60;3.73;;;4.90;99.90;;;5.90;100.00;-19927.84;5032998;28;20225;-63
2022/01/22 08:44:25;;;;;;;8.37;3.60;;;4.90;99.90;;;5.91;100.00;-19928.22;5033498;28;20284;-64
2022/01/22 08:46:53;;;;;;;4.63;2.93;;;5.00;99.90;;;5.84;100.00;-19925.81;5032744;28;20327;-63
2022/01/22 08:49:21;;;;;;;5.20;3.60;;;5.00;99.90;;;6.03;100.00;-19932.13;5032714;28;20229;-64
2022/01/22 08:51:49;;;;;;;5.27;3.53;;;5.00;99.90;;;6.01;100.00;-19931.44;5032175;28;20239;-63
2022/01/22 08:54:17;;;;;;;5.97;3.80;;;5.00;99.90;;;6.02;100.00;-19931.97;5030574;28;20271;-63
2022/01/22 08:56:46;;;;;;;5.70;3.40;;;5.00;99.90;;;6.01;100.00;-19931.44;5023787;28;20352;-65
2022/01/22 08:59:15;;;;;;;5.37;3.70;;;5.10;99.90;;;5.94;100.00;-19929.22;5028138;28;20221;-65
2022/01/22 09:01:48;;;;;;;6.47;3.40;;;5.00;99.90;;;6.04;100.00;-19932.47;5022832;28;20221;-63
2022/01/22 09:04:17;;;;;;;6.07;3.50;;;5.10;99.90;;;6.21;100.00;-19938.28;5033923;28;20634;-64
2022/01/22 09:06:45;;;;;;;6.30;3.23;;;5.10;99.90;;;6.10;100.00;-19934.53;5028473;28;20203;-65
2022/01/22 09:09:13;;;;;;;4.80;3.70;;;5.10;99.90;;;6.06;100.00;-19933.16;5033417;28;20222;-64
2022/01/22 09:11:44;;;;;;;6.03;3.67;;;5.10;99.90;;;6.08;100.00;-19933.84;5033168;28;20268;-63
2022/01/22 09:14:17;;;;;;;8.17;3.67;;;5.10;99.90;;;6.17;100.00;-19937.09;5031056;28;20249;-64
2022/01/22 09:16:48;;;;;;;5.63;3.40;;;5.20;99.90;;;6.16;100.00;-19936.56;5030526;28;20222;-65
2022/01/22 09:19:23;;;;;;;5.70;3.07;;;5.20;99.90;;;6.14;100.00;-19936.06;5032457;28;20232;-70
2022/01/22 09:21:51;;;;;;;6.50;3.30;;;5.20;99.90;;;6.06;100.00;-19933.34;5032579;28;20253;-69
2022/01/22 09:24:20;;;;;;;6.43;3.80;;;5.20;99.90;;;6.14;100.00;-19936.06;5032351;28;20646;-69
2022/01/22 09:26:48;;;;;;;6.63;3.53;;;5.20;99.90;;;6.15;100.00;-19936.25;5031801;28;20232;-69
2022/01/22 09:29:17;;;;;;;7.33;3.50;;;5.20;99.90;;;6.22;100.00;-19938.47;5032258;28;20280;-70
2022/01/22 09:31:46;;;;;;;7.77;3.80;;;5.30;99.90;;;6.35;100.00;-19942.91;5031562;28;20229;-69
2022/01/22 09:34:15;;;;;;;4.97;3.33;;;5.30;99.90;;;6.32;100.00;-19941.88;5017954;28;20226;-69
2022/01/22 09:36:43;;;;;;;5.30;3.40;;;5.30;99.90;;;6.23;100.00;-19938.97;5031346;28;20259;-70
2022/01/22 09:39:12;;;;;;;4.47;3.17;;;5.30;99.90;;;6.36;100.00;-19943.41;5032361;28;20233;-69
2022/01/22 09:41:40;;;;;;;4.03;3.30;;;5.40;99.90;;;6.61;100.00;-19951.97;5031392;28;20360;-69
2022/01/22 09:44:30;;;;;;;6.10;3.47;;;5.40;99.90;;;6.62;100.00;-19952.31;5001940;28;20262;-68
2022/01/22 09:46:59;;;;;;;6.30;3.27;;;5.50;99.90;;;6.54;100.00;-19949.56;5011852;28;20254;-69
2022/01/22 09:49:30;;;;;;;5.73;3.27;;;5.50;99.90;;;6.70;100.00;-19955.03;5019414;28;20253;-69
2022/01/22 09:51:58;;;;;;;5.17;3.30;;;5.60;99.90;;;6.55;100.00;-19949.91;5031479;28;20317;-71
2022/01/22 09:54:26;;;;;;;6.00;3.60;;;5.60;99.90;;;6.49;100.00;-19947.84;5032225;28;20724;-69
2022/01/22 09:56:57;;;;;;;5.23;3.33;;;5.60;99.90;;;6.61;100.00;-19951.78;5030982;28;20222;-70
2022/01/22 09:59:25;;;;;;;6.40;3.30;;;5.60;99.90;;;6.52;100.00;-19948.72;5031569;28;20410;-71
2022/01/22 10:02:08;;;;;;;4.00;3.00;;;5.50;99.90;;;6.58;100.00;-19950.94;5031212;28;20324;-70
2022/01/22 10:04:38;;;;;;;6.00;3.87;;;5.60;99.90;;;6.79;100.00;-19958.13;5031769;28;20225;-63
2022/01/22 10:07:15;;;;;;;6.70;3.73;;;5.70;99.90;;;6.78;100.00;-19957.59;5031075;28;20322;-63
2022/01/22 10:09:57;;;;;;;7.27;3.50;;;5.70;99.90;;;6.98;100.00;-19964.59;5016023;28;20191;-64
2022/01/22 10:12:27;;;;;;;7.53;3.83;;;5.80;99.90;;;7.01;100.00;-19965.63;5030963;28;20728;-65
2022/01/22 10:15:09;;;;;;;5.47;3.20;;;5.90;99.90;;;6.87;100.00;-19960.66;5030739;28;20253;-64
2022/01/22 10:17:49;;;;;;;6.10;3.10;;;5.80;99.90;;;7.08;100.00;-19967.84;5030743;28;20257;-64
2022/01/22 10:20:37;;;;;;;4.60;3.00;;;5.90;99.90;;;6.93;100.00;-19962.72;5020011;28;20312;-64
2022/01/22 10:23:17;;;;;;;5.57;3.40;;;5.90;99.90;;;6.87;100.00;-19960.84;5030972;28;20226;-63
2022/01/22 10:25:52;;;;;;;7.30;4.03;;;5.80;99.90;;;7.14;100.00;-19970.06;5029961;28;20347;-63
2022/01/22 10:28:23;;;;;;;6.37;3.90;;;5.90;99.90;;;7.01;100.00;-19965.47;5030871;28;20320;-65
2022/01/22 10:30:55;;;;;;;5.67;3.97;;;5.90;99.90;;;7.01;100.00;-19965.47;5030736;28;20288;-66
2022/01/22 10:33:29;;;;;;;5.83;3.77;;;6.00;99.90;;;7.05;100.00;-19967.00;5031937;28;20289;-64
2022/01/22 10:36:12;;;;;;;6.37;4.17;;;6.00;99.90;;;7.27;100.00;-19974.34;5011327;28;20306;-64
2022/01/22 10:38:43;;;;;;;5.03;4.03;;;6.00;99.90;;;7.53;100.00;-19983.06;5010366;28;20269;-63
2022/01/22 10:41:13;;;;;;;7.53;4.13;;;6.20;99.90;;;7.56;100.00;-19984.25;5010124;28;20238;-65
2022/01/22 10:43:51;;;;;;;5.70;3.83;;;6.30;99.90;;;7.53;100.00;-19983.22;5010248;28;20264;-64
2022/01/22 10:46:32;;;;;;;5.37;3.40;;;6.30;99.90;;;7.40;100.00;-19978.78;5010391;28;20254;-70
2022/01/22 10:49:05;;;;;;;5.13;3.43;;;6.30;99.90;;;7.57;100.00;-19984.59;5011897;28;20249;-72
2022/01/22 10:51:47;;;;;;;5.23;3.70;;;6.40;99.90;;;7.61;100.00;-19985.78;5011909;28;20294;-71
2022/01/22 10:54:16;;;;;;;6.40;3.30;;;6.40;99.90;;;7.65;100.00;-19987.34;5012786;28;20269;-73
2022/01/22 10:56:46;;;;;;;6.57;3.77;;;6.40;99.90;;;7.60;100.00;-19985.44;5011647;28;20322;-71
2022/01/22 10:59:17;;;;;;;6.80;3.70;;;6.40;99.90;;;7.58;100.00;-19984.94;5011960;28;20318;-70
2022/01/22 11:01:53;;;;;;;7.33;3.70;;;6.40;99.90;;;7.48;100.00;-19981.53;5011853;28;20285;-74
2022/01/22 11:04:26;;;;;;;4.93;3.80;;;6.40;99.90;;;7.53;100.00;-19983.06;5012370;28;20714;-72
2022/01/22 11:06:58;;;;;;;6.60;4.23;;;6.40;99.90;;;7.65;100.00;-19987.34;5012082;28;20250;-72
2022/01/22 11:09:47;;;;;;;6.33;3.60;;;6.40;99.90;;;7.70;100.00;-19988.88;5012231;28;20194;-72
2022/01/22 11:12:16;;;;;;;6.50;3.93;;;6.50;99.90;;;7.87;100.00;-19994.84;5012270;28;20300;-72
2022/01/22 11:14:46;;;;;;;6.33;4.00;;;6.60;99.90;;;7.88;100.00;-19995.03;5011458;28;20295;-71
2022/01/22 11:17:15;;;;;;;6.77;3.23;;;6.60;99.90;;;7.83;100.00;-19993.47;5011355;28;20603;-72
2022/01/22 11:19:50;;;;;;;4.47;3.37;;;6.60;99.90;;;7.76;100.00;-19991.09;5007658;28;20278;-72
2022/01/22 11:22:20;;;;;;;3.83;3.20;;;6.60;99.90;;;7.88;100.00;-19995.03;4998504;28;20237;-73
2022/01/22 11:24:51;;;;;;;6.00;3.33;;;6.70;99.90;;;7.64;100.00;-19987.00;5011629;28;20241;-72
2022/01/22 11:27:22;;;;;;;5.97;3.47;;;6.50;99.90;;;7.90;100.00;-19995.88;5011348;28;20226;-72
2022/01/22 11:29:55;;;;;;;5.57;4.03;;;6.60;99.90;;;7.85;100.00;-19994.00;5010543;28;20219;-73
2022/01/22 11:32:28;;;;;;;4.77;3.13;;;6.60;99.90;;;7.69;100.00;-19988.53;5025640;28;20234;-73
2022/01/22 11:35:04;;;;;;;4.77;3.60;;;6.50;99.90;;;7.72;100.00;-19989.72;5030564;28;20225;-72
2022/01/22 11:37:41;;;;;;;5.43;3.70;;;6.50;99.90;;;7.64;100.00;-19986.81;5033428;28;20312;-72
2022/01/22 11:40:12;;;;;;;5.13;3.40;;;6.50;99.90;;;7.60;100.00;-19985.44;5034560;28;20287;-73